sensor_id;sensor_type;location;lat;lon;timestamp;P1;durP1;ratioP1;P2;durP2;ratioP2
33794;SDS011;51430;52.242;21.118;2022-11-20T00:01:33;57.50;;;43.00;;
33794;SDS011;51430;52.242;21.118;2022-11-20T00:04:01;56.50;;;41.40;;
33794;SDS011;51430;52.242;21.118;2022-11-20T00:06:30;59.00;;;42.80;;
33794;SDS011;51430;52.242;21.118;2022-11-20T00:08:59;59.90;;;43.80;;
33794;SDS011;51430;52.242;21.118;2022-11-20T00:11:29;61.40;;;44.70;;
33794;SDS011;51430;52.242;21.118;2022-11-20T00:14:00;58.20;;;43.70;;
33794;SDS011;51430;52.242;21.118;2022-11-20T00:16:30;58.90;;;42.40;;
33794;SDS011;51430;52.242;21.118;2022-11-20T00:19:00;59.60;;;44.70;;
33794;SDS011;51430;52.242;21.118;2022-11-20T00:21:29;61.20;;;44.20;;
33794;SDS011;51430;52.242;21.118;2022-11-20T00:23:58;61.20;;;44.80;;
33794;SDS011;51430;52.242;21.118;2022-11-20T00:26:27;60.00;;;43.90;;
33794;SDS011;51430;52.242;21.118;2022-11-20T00:28:57;62.30;;;44.80;;
33794;SDS011;51430;52.242;21.118;2022-11-20T00:31:27;62.10;;;45.30;;
33794;SDS011;51430;52.242;21.118;2022-11-20T00:33:56;61.50;;;44.90;;
33794;SDS011;51430;52.242;21.118;2022-11-20T00:36:26;60.90;;;45.10;;
33794;SDS011;51430;52.242;21.118;2022-11-20T00:38:56;63.70;;;45.70;;
33794;SDS011;51430;52.242;21.118;2022-11-20T00:41:26;63.50;;;45.10;;
33794;SDS011;51430;52.242;21.118;2022-11-20T00:43:56;63.00;;;46.20;;
33794;SDS011;51430;52.242;21.118;2022-11-20T00:46:25;64.30;;;46.50;;
33794;SDS011;51430;52.242;21.118;2022-11-20T00:48:55;63.60;;;46.70;;
33794;SDS011;51430;52.242;21.118;2022-11-20T00:51:24;62.00;;;45.90;;
33794;SDS011;51430;52.242;21.118;2022-11-20T00:53:55;63.40;;;46.40;;
33794;SDS011;51430;52.242;21.118;2022-11-20T00:56:27;63.90;;;46.20;;
33794;SDS011;51430;52.242;21.118;2022-11-20T00:58:58;61.50;;;45.10;;
33794;SDS011;51430;52.242;21.118;2022-11-20T01:01:27;62.60;;;45.70;;
33794;SDS011;51430;52.242;21.118;2022-11-20T01:03:58;62.70;;;46.20;;
33794;SDS011;51430;52.242;21.118;2022-11-20T01:06:29;60.60;;;44.70;;
33794;SDS011;51430;52.242;21.118;2022-11-20T01:09:01;62.00;;;46.10;;
33794;SDS011;51430;52.242;21.118;2022-11-20T01:11:44;62.90;;;45.80;;
33794;SDS011;51430;52.242;21.118;2022-11-20T01:14:31;64.90;;;46.60;;
33794;SDS011;51430;52.242;21.118;2022-11-20T01:16:59;67.70;;;47.90;;
33794;SDS011;51430;52.242;21.118;2022-11-20T01:19:27;63.50;;;47.00;;
33794;SDS011;51430;52.242;21.118;2022-11-20T01:21:55;63.70;;;47.00;;
33794;SDS011;51430;52.242;21.118;2022-11-20T01:24:24;64.30;;;46.00;;
33794;SDS011;51430;52.242;21.118;2022-11-20T01:26:52;63.00;;;46.00;;
33794;SDS011;51430;52.242;21.118;2022-11-20T01:29:22;60.90;;;45.70;;
33794;SDS011;51430;52.242;21.118;2022-11-20T01:31:55;61.40;;;43.80;;
33794;SDS011;51430;52.242;21.118;2022-11-20T01:34:23;59.90;;;44.40;;
33794;SDS011;51430;52.242;21.118;2022-11-20T01:36:52;62.30;;;45.10;;
33794;SDS011;51430;52.242;21.118;2022-11-20T01:39:22;60.60;;;44.90;;
33794;SDS011;51430;52.242;21.118;2022-11-20T01:41:52;61.90;;;44.20;;
33794;SDS011;51430;52.242;21.118;2022-11-20T01:44:59;62.00;;;45.00;;
33794;SDS011;51430;52.242;21.118;2022-11-20T01:47:30;63.90;;;45.70;;
33794;SDS011;51430;52.242;21.118;2022-11-20T01:50:11;62.60;;;45.30;;
33794;SDS011;51430;52.242;21.118;2022-11-20T01:53:12;61.70;;;46.90;;
33794;SDS011;51430;52.242;21.118;2022-11-20T01:55:46;62.20;;;45.70;;
33794;SDS011;51430;52.242;21.118;2022-11-20T01:58:18;60.70;;;45.10;;
33794;SDS011;51430;52.242;21.118;2022-11-20T02:00:50;62.50;;;44.20;;
33794;SDS011;51430;52.242;21.118;2022-11-20T02:03:19;59.80;;;43.90;;
33794;SDS011;51430;52.242;21.118;2022-11-20T02:05:53;61.00;;;44.20;;
33794;SDS011;51430;52.242;21.118;2022-11-20T02:08:38;58.40;;;44.00;;
33794;SDS011;51430;52.242;21.118;2022-11-20T02:11:07;58.60;;;43.20;;
33794;SDS011;51430;52.242;21.118;2022-11-20T02:13:35;57.30;;;42.00;;
33794;SDS011;51430;52.242;21.118;2022-11-20T02:16:23;60.00;;;44.40;;
33794;SDS011;51430;52.242;21.118;2022-11-20T02:18:52;58.70;;;42.30;;
33794;SDS011;51430;52.242;21.118;2022-11-20T02:21:49;57.50;;;42.40;;
33794;SDS011;51430;52.242;21.118;2022-11-20T02:24:33;56.80;;;41.40;;
33794;SDS011;51430;52.242;21.118;2022-11-20T02:27:03;57.40;;;42.40;;
33794;SDS011;51430;52.242;21.118;2022-11-20T02:29:39;57.50;;;42.00;;
33794;SDS011;51430;52.242;21.118;2022-11-20T02:32:27;58.00;;;42.40;;
33794;SDS011;51430;52.242;21.118;2022-11-20T02:34:57;55.90;;;41.90;;
33794;SDS011;51430;52.242;21.118;2022-11-20T02:37:29;58.50;;;42.40;;
33794;SDS011;51430;52.242;21.118;2022-11-20T02:40:07;56.80;;;42.40;;
33794;SDS011;51430;52.242;21.118;2022-11-20T02:42:36;57.80;;;42.40;;
33794;SDS011;51430;52.242;21.118;2022-11-20T02:45:05;57.00;;;42.80;;
33794;SDS011;51430;52.242;21.118;2022-11-20T02:47:34;58.40;;;43.00;;
33794;SDS011;51430;52.242;21.118;2022-11-20T02:50:03;59.50;;;43.80;;
33794;SDS011;51430;52.242;21.118;2022-11-20T02:52:32;57.60;;;43.70;;
33794;SDS011;51430;52.242;21.118;2022-11-20T02:55:00;57.50;;;42.90;;
33794;SDS011;51430;52.242;21.118;2022-11-20T02:57:28;57.40;;;43.50;;
33794;SDS011;51430;52.242;21.118;2022-11-20T02:59:56;57.40;;;43.60;;
33794;SDS011;51430;52.242;21.118;2022-11-20T03:02:24;58.50;;;44.30;;
33794;SDS011;51430;52.242;21.118;2022-11-20T03:04:52;58.60;;;44.00;;
33794;SDS011;51430;52.242;21.118;2022-11-20T03:07:20;58.40;;;44.70;;
33794;SDS011;51430;52.242;21.118;2022-11-20T03:09:48;59.40;;;44.80;;
33794;SDS011;51430;52.242;21.118;2022-11-20T03:12:17;58.30;;;44.10;;
33794;SDS011;51430;52.242;21.118;2022-11-20T03:14:45;59.20;;;44.60;;
33794;SDS011;51430;52.242;21.118;2022-11-20T03:17:19;58.90;;;45.40;;
33794;SDS011;51430;52.242;21.118;2022-11-20T03:19:48;59.10;;;45.40;;
33794;SDS011;51430;52.242;21.118;2022-11-20T03:22:16;61.90;;;44.80;;
33794;SDS011;51430;52.242;21.118;2022-11-20T03:24:44;60.50;;;46.40;;
33794;SDS011;51430;52.242;21.118;2022-11-20T03:27:12;61.70;;;46.60;;
33794;SDS011;51430;52.242;21.118;2022-11-20T03:29:40;60.40;;;45.30;;
33794;SDS011;51430;52.242;21.118;2022-11-20T03:32:08;59.70;;;44.80;;
33794;SDS011;51430;52.242;21.118;2022-11-20T03:34:37;59.80;;;45.50;;
33794;SDS011;51430;52.242;21.118;2022-11-20T03:37:05;58.40;;;45.10;;
33794;SDS011;51430;52.242;21.118;2022-11-20T03:39:34;58.40;;;44.40;;
33794;SDS011;51430;52.242;21.118;2022-11-20T03:42:02;62.70;;;46.10;;
33794;SDS011;51430;52.242;21.118;2022-11-20T03:44:50;58.60;;;45.40;;
33794;SDS011;51430;52.242;21.118;2022-11-20T03:47:18;64.80;;;46.40;;
33794;SDS011;51430;52.242;21.118;2022-11-20T03:49:47;58.30;;;45.50;;
33794;SDS011;51430;52.242;21.118;2022-11-20T03:52:15;62.40;;;46.70;;
33794;SDS011;51430;52.242;21.118;2022-11-20T03:54:43;60.90;;;46.00;;
33794;SDS011;51430;52.242;21.118;2022-11-20T03:57:11;60.70;;;45.90;;
33794;SDS011;51430;52.242;21.118;2022-11-20T03:59:39;61.20;;;45.90;;
33794;SDS011;51430;52.242;21.118;2022-11-20T04:02:07;60.60;;;44.70;;
33794;SDS011;51430;52.242;21.118;2022-11-20T04:04:35;61.20;;;45.90;;
33794;SDS011;51430;52.242;21.118;2022-11-20T04:07:04;62.40;;;46.00;;
33794;SDS011;51430;52.242;21.118;2022-11-20T04:09:32;59.30;;;45.10;;
33794;SDS011;51430;52.242;21.118;2022-11-20T04:12:00;59.00;;;45.10;;
33794;SDS011;51430;52.242;21.118;2022-11-20T04:14:28;59.20;;;44.90;;
33794;SDS011;51430;52.242;21.118;2022-11-20T04:16:57;59.20;;;43.70;;
33794;SDS011;51430;52.242;21.118;2022-11-20T04:19:25;57.80;;;43.50;;
33794;SDS011;51430;52.242;21.118;2022-11-20T04:21:53;55.50;;;43.20;;
33794;SDS011;51430;52.242;21.118;2022-11-20T04:24:21;55.30;;;41.70;;
33794;SDS011;51430;52.242;21.118;2022-11-20T04:26:49;57.20;;;44.00;;
33794;SDS011;51430;52.242;21.118;2022-11-20T04:29:17;53.10;;;41.80;;
33794;SDS011;51430;52.242;21.118;2022-11-20T04:31:46;55.50;;;42.20;;
33794;SDS011;51430;52.242;21.118;2022-11-20T04:34:14;52.90;;;40.60;;
33794;SDS011;51430;52.242;21.118;2022-11-20T04:36:42;53.30;;;42.10;;
33794;SDS011;51430;52.242;21.118;2022-11-20T04:39:11;51.00;;;40.20;;
33794;SDS011;51430;52.242;21.118;2022-11-20T04:41:42;52.40;;;40.80;;
33794;SDS011;51430;52.242;21.118;2022-11-20T04:44:10;53.20;;;40.30;;
33794;SDS011;51430;52.242;21.118;2022-11-20T04:46:42;52.20;;;39.80;;
33794;SDS011;51430;52.242;21.118;2022-11-20T04:49:10;52.40;;;40.30;;
33794;SDS011;51430;52.242;21.118;2022-11-20T04:51:39;52.40;;;40.70;;
33794;SDS011;51430;52.242;21.118;2022-11-20T04:54:08;51.20;;;39.20;;
33794;SDS011;51430;52.242;21.118;2022-11-20T04:56:37;50.30;;;39.30;;
33794;SDS011;51430;52.242;21.118;2022-11-20T04:59:05;51.40;;;39.00;;
33794;SDS011;51430;52.242;21.118;2022-11-20T05:01:34;53.40;;;39.60;;
33794;SDS011;51430;52.242;21.118;2022-11-20T05:04:02;51.30;;;38.60;;
33794;SDS011;51430;52.242;21.118;2022-11-20T05:06:31;51.90;;;40.00;;
33794;SDS011;51430;52.242;21.118;2022-11-20T05:08:59;50.70;;;39.40;;
33794;SDS011;51430;52.242;21.118;2022-11-20T05:11:28;51.30;;;39.70;;
33794;SDS011;51430;52.242;21.118;2022-11-20T05:13:58;53.30;;;39.60;;
33794;SDS011;51430;52.242;21.118;2022-11-20T05:16:27;50.90;;;40.50;;
33794;SDS011;51430;52.242;21.118;2022-11-20T05:18:56;51.00;;;40.70;;
33794;SDS011;51430;52.242;21.118;2022-11-20T05:21:24;52.60;;;39.50;;
33794;SDS011;51430;52.242;21.118;2022-11-20T05:23:52;53.60;;;40.70;;
33794;SDS011;51430;52.242;21.118;2022-11-20T05:26:21;50.50;;;40.00;;
33794;SDS011;51430;52.242;21.118;2022-11-20T05:28:50;53.80;;;40.90;;
33794;SDS011;51430;52.242;21.118;2022-11-20T05:31:20;52.40;;;40.40;;
33794;SDS011;51430;52.242;21.118;2022-11-20T05:33:56;55.70;;;41.40;;
33794;SDS011;51430;52.242;21.118;2022-11-20T05:36:25;54.10;;;41.20;;
33794;SDS011;51430;52.242;21.118;2022-11-20T05:38:53;53.10;;;39.90;;
33794;SDS011;51430;52.242;21.118;2022-11-20T05:41:28;52.20;;;40.50;;
33794;SDS011;51430;52.242;21.118;2022-11-20T05:43:57;50.50;;;38.70;;
33794;SDS011;51430;52.242;21.118;2022-11-20T05:46:26;52.00;;;39.80;;
33794;SDS011;51430;52.242;21.118;2022-11-20T05:48:57;51.70;;;40.20;;
33794;SDS011;51430;52.242;21.118;2022-11-20T05:51:26;54.10;;;40.30;;
33794;SDS011;51430;52.242;21.118;2022-11-20T05:53:57;54.60;;;41.20;;
33794;SDS011;51430;52.242;21.118;2022-11-20T05:56:26;52.00;;;40.60;;
33794;SDS011;51430;52.242;21.118;2022-11-20T05:58:55;49.40;;;39.00;;
33794;SDS011;51430;52.242;21.118;2022-11-20T06:01:24;51.40;;;39.50;;
33794;SDS011;51430;52.242;21.118;2022-11-20T06:03:54;53.70;;;40.40;;
33794;SDS011;51430;52.242;21.118;2022-11-20T06:06:22;52.00;;;40.00;;
33794;SDS011;51430;52.242;21.118;2022-11-20T06:08:51;57.80;;;42.10;;
33794;SDS011;51430;52.242;21.118;2022-11-20T06:11:19;52.90;;;39.80;;
33794;SDS011;51430;52.242;21.118;2022-11-20T06:13:47;52.60;;;39.70;;
33794;SDS011;51430;52.242;21.118;2022-11-20T06:16:17;53.00;;;39.50;;
33794;SDS011;51430;52.242;21.118;2022-11-20T06:18:51;52.00;;;39.80;;
33794;SDS011;51430;52.242;21.118;2022-11-20T06:21:20;52.20;;;39.70;;
33794;SDS011;51430;52.242;21.118;2022-11-20T06:23:50;52.10;;;40.40;;
33794;SDS011;51430;52.242;21.118;2022-11-20T06:26:19;54.70;;;41.10;;
33794;SDS011;51430;52.242;21.118;2022-11-20T06:28:49;53.50;;;40.20;;
33794;SDS011;51430;52.242;21.118;2022-11-20T06:31:19;53.30;;;40.80;;
33794;SDS011;51430;52.242;21.118;2022-11-20T06:33:49;57.10;;;42.50;;
33794;SDS011;51430;52.242;21.118;2022-11-20T06:36:19;55.00;;;40.70;;
33794;SDS011;51430;52.242;21.118;2022-11-20T06:38:50;54.10;;;42.60;;
33794;SDS011;51430;52.242;21.118;2022-11-20T06:41:19;53.90;;;42.30;;
33794;SDS011;51430;52.242;21.118;2022-11-20T06:43:49;56.60;;;42.90;;
33794;SDS011;51430;52.242;21.118;2022-11-20T06:46:18;56.50;;;42.60;;
33794;SDS011;51430;52.242;21.118;2022-11-20T06:48:47;55.90;;;41.60;;
33794;SDS011;51430;52.242;21.118;2022-11-20T06:51:16;56.40;;;41.70;;
33794;SDS011;51430;52.242;21.118;2022-11-20T06:53:45;54.10;;;40.90;;
33794;SDS011;51430;52.242;21.118;2022-11-20T06:56:13;56.00;;;42.90;;
33794;SDS011;51430;52.242;21.118;2022-11-20T06:58:41;53.10;;;41.50;;
33794;SDS011;51430;52.242;21.118;2022-11-20T07:01:10;52.10;;;40.90;;
33794;SDS011;51430;52.242;21.118;2022-11-20T07:03:40;52.60;;;40.40;;
33794;SDS011;51430;52.242;21.118;2022-11-20T07:06:09;52.10;;;41.50;;
33794;SDS011;51430;52.242;21.118;2022-11-20T07:08:38;53.10;;;40.90;;
33794;SDS011;51430;52.242;21.118;2022-11-20T07:11:07;49.20;;;39.00;;
33794;SDS011;51430;52.242;21.118;2022-11-20T07:13:36;49.20;;;39.60;;
33794;SDS011;51430;52.242;21.118;2022-11-20T07:16:05;50.30;;;39.70;;
33794;SDS011;51430;52.242;21.118;2022-11-20T07:18:35;48.10;;;38.70;;
33794;SDS011;51430;52.242;21.118;2022-11-20T07:21:04;50.50;;;39.60;;
33794;SDS011;51430;52.242;21.118;2022-11-20T07:23:35;46.90;;;38.40;;
33794;SDS011;51430;52.242;21.118;2022-11-20T07:26:07;49.30;;;38.20;;
33794;SDS011;51430;52.242;21.118;2022-11-20T07:28:37;51.60;;;39.20;;
33794;SDS011;51430;52.242;21.118;2022-11-20T07:31:13;49.30;;;39.40;;
33794;SDS011;51430;52.242;21.118;2022-11-20T07:33:46;48.80;;;39.20;;
33794;SDS011;51430;52.242;21.118;2022-11-20T07:36:14;48.90;;;38.80;;
33794;SDS011;51430;52.242;21.118;2022-11-20T07:38:43;47.60;;;38.60;;
33794;SDS011;51430;52.242;21.118;2022-11-20T07:41:11;47.10;;;38.90;;
33794;SDS011;51430;52.242;21.118;2022-11-20T07:43:39;46.10;;;38.10;;
33794;SDS011;51430;52.242;21.118;2022-11-20T07:46:08;48.60;;;39.00;;
33794;SDS011;51430;52.242;21.118;2022-11-20T07:48:36;47.50;;;38.00;;
33794;SDS011;51430;52.242;21.118;2022-11-20T07:51:05;44.40;;;37.70;;
33794;SDS011;51430;52.242;21.118;2022-11-20T07:53:33;46.60;;;37.90;;
33794;SDS011;51430;52.242;21.118;2022-11-20T07:56:02;46.40;;;37.30;;
33794;SDS011;51430;52.242;21.118;2022-11-20T07:58:31;45.60;;;37.80;;
33794;SDS011;51430;52.242;21.118;2022-11-20T08:01:05;46.00;;;37.30;;
33794;SDS011;51430;52.242;21.118;2022-11-20T08:03:35;45.70;;;37.10;;
33794;SDS011;51430;52.242;21.118;2022-11-20T08:06:05;46.80;;;36.70;;
33794;SDS011;51430;52.242;21.118;2022-11-20T08:08:34;43.70;;;36.00;;
33794;SDS011;51430;52.242;21.118;2022-11-20T08:11:09;44.20;;;36.20;;
33794;SDS011;51430;52.242;21.118;2022-11-20T08:13:55;43.30;;;36.40;;
33794;SDS011;51430;52.242;21.118;2022-11-20T08:16:40;44.90;;;36.40;;
33794;SDS011;51430;52.242;21.118;2022-11-20T08:19:10;43.50;;;35.10;;
33794;SDS011;51430;52.242;21.118;2022-11-20T08:21:44;43.70;;;36.10;;
33794;SDS011;51430;52.242;21.118;2022-11-20T08:24:13;44.10;;;36.60;;
33794;SDS011;51430;52.242;21.118;2022-11-20T08:26:42;42.90;;;36.10;;
33794;SDS011;51430;52.242;21.118;2022-11-20T08:29:10;41.60;;;35.80;;
33794;SDS011;51430;52.242;21.118;2022-11-20T08:31:38;41.50;;;35.20;;
33794;SDS011;51430;52.242;21.118;2022-11-20T08:34:26;43.60;;;36.50;;
33794;SDS011;51430;52.242;21.118;2022-11-20T08:36:54;43.90;;;35.50;;
33794;SDS011;51430;52.242;21.118;2022-11-20T08:39:23;39.40;;;33.60;;
33794;SDS011;51430;52.242;21.118;2022-11-20T08:41:51;40.50;;;33.90;;
33794;SDS011;51430;52.242;21.118;2022-11-20T08:44:20;40.10;;;33.90;;
33794;SDS011;51430;52.242;21.118;2022-11-20T08:46:48;39.30;;;32.80;;
33794;SDS011;51430;52.242;21.118;2022-11-20T08:49:16;38.70;;;32.90;;
33794;SDS011;51430;52.242;21.118;2022-11-20T08:51:46;38.00;;;32.30;;
33794;SDS011;51430;52.242;21.118;2022-11-20T08:54:16;37.30;;;32.80;;
33794;SDS011;51430;52.242;21.118;2022-11-20T08:56:47;37.60;;;32.30;;
33794;SDS011;51430;52.242;21.118;2022-11-20T08:59:16;40.10;;;34.20;;
33794;SDS011;51430;52.242;21.118;2022-11-20T09:02:07;41.70;;;34.60;;
33794;SDS011;51430;52.242;21.118;2022-11-20T09:04:35;38.70;;;34.40;;
33794;SDS011;51430;52.242;21.118;2022-11-20T09:07:06;43.20;;;35.30;;
33794;SDS011;51430;52.242;21.118;2022-11-20T09:09:34;41.70;;;34.00;;
33794;SDS011;51430;52.242;21.118;2022-11-20T09:12:02;41.10;;;34.90;;
33794;SDS011;51430;52.242;21.118;2022-11-20T09:14:31;39.80;;;34.40;;
33794;SDS011;51430;52.242;21.118;2022-11-20T09:17:02;42.30;;;34.00;;
33794;SDS011;51430;52.242;21.118;2022-11-20T09:19:30;40.10;;;33.80;;
33794;SDS011;51430;52.242;21.118;2022-11-20T09:22:03;40.20;;;34.70;;
33794;SDS011;51430;52.242;21.118;2022-11-20T09:24:31;40.40;;;35.40;;
33794;SDS011;51430;52.242;21.118;2022-11-20T09:27:04;40.20;;;33.80;;
33794;SDS011;51430;52.242;21.118;2022-11-20T09:29:33;39.00;;;33.60;;
33794;SDS011;51430;52.242;21.118;2022-11-20T09:32:04;40.40;;;34.10;;
33794;SDS011;51430;52.242;21.118;2022-11-20T09:34:33;38.90;;;33.80;;
33794;SDS011;51430;52.242;21.118;2022-11-20T09:37:02;40.20;;;33.90;;
33794;SDS011;51430;52.242;21.118;2022-11-20T09:39:34;37.70;;;33.30;;
33794;SDS011;51430;52.242;21.118;2022-11-20T09:45:54;38.50;;;33.20;;
33794;SDS011;51430;52.242;21.118;2022-11-20T09:48:29;38.20;;;33.90;;
33794;SDS011;51430;52.242;21.118;2022-11-20T09:51:52;39.30;;;32.80;;
33794;SDS011;51430;52.242;21.118;2022-11-20T09:54:20;38.30;;;32.30;;
33794;SDS011;51430;52.242;21.118;2022-11-20T09:57:01;36.30;;;31.90;;
33794;SDS011;51430;52.242;21.118;2022-11-20T09:59:41;38.00;;;32.60;;
33794;SDS011;51430;52.242;21.118;2022-11-20T10:04:53;37.50;;;33.40;;
33794;SDS011;51430;52.242;21.118;2022-11-20T10:07:24;36.20;;;31.80;;
33794;SDS011;51430;52.242;21.118;2022-11-20T10:10:00;37.90;;;32.60;;
33794;SDS011;51430;52.242;21.118;2022-11-20T10:23:54;36.00;;;30.90;;
33794;SDS011;51430;52.242;21.118;2022-11-20T10:26:39;35.20;;;30.80;;
33794;SDS011;51430;52.242;21.118;2022-11-20T10:29:21;34.60;;;30.60;;
33794;SDS011;51430;52.242;21.118;2022-11-20T10:32:04;35.70;;;30.90;;
33794;SDS011;51430;52.242;21.118;2022-11-20T10:37:29;36.20;;;32.10;;
33794;SDS011;51430;52.242;21.118;2022-11-20T10:42:37;35.20;;;31.40;;
33794;SDS011;51430;52.242;21.118;2022-11-20T10:57:00;36.80;;;31.00;;
33794;SDS011;51430;52.242;21.118;2022-11-20T10:59:40;34.90;;;31.30;;
33794;SDS011;51430;52.242;21.118;2022-11-20T11:02:37;35.00;;;31.20;;
33794;SDS011;51430;52.242;21.118;2022-11-20T11:05:14;34.40;;;30.60;;
33794;SDS011;51430;52.242;21.118;2022-11-20T11:07:49;34.80;;;31.00;;
33794;SDS011;51430;52.242;21.118;2022-11-20T11:10:39;34.70;;;30.90;;
33794;SDS011;51430;52.242;21.118;2022-11-20T11:13:24;36.40;;;32.60;;
33794;SDS011;51430;52.242;21.118;2022-11-20T11:16:20;34.80;;;31.10;;
33794;SDS011;51430;52.242;21.118;2022-11-20T11:19:21;33.70;;;30.10;;
33794;SDS011;51430;52.242;21.118;2022-11-20T11:21:52;34.80;;;31.10;;
33794;SDS011;51430;52.242;21.118;2022-11-20T11:24:26;34.50;;;30.80;;
33794;SDS011;51430;52.242;21.118;2022-11-20T11:27:12;35.00;;;30.70;;
33794;SDS011;51430;52.242;21.118;2022-11-20T11:29:50;35.00;;;31.30;;
33794;SDS011;51430;52.242;21.118;2022-11-20T11:32:30;35.40;;;30.20;;
33794;SDS011;51430;52.242;21.118;2022-11-20T11:35:03;35.20;;;31.50;;
33794;SDS011;51430;52.242;21.118;2022-11-20T11:37:49;34.30;;;30.50;;
33794;SDS011;51430;52.242;21.118;2022-11-20T11:40:19;35.20;;;31.50;;
33794;SDS011;51430;52.242;21.118;2022-11-20T11:42:53;34.70;;;31.00;;
33794;SDS011;51430;52.242;21.118;2022-11-20T11:45:28;34.20;;;30.40;;
33794;SDS011;51430;52.242;21.118;2022-11-20T11:47:57;34.30;;;30.70;;
33794;SDS011;51430;52.242;21.118;2022-11-20T11:50:28;34.40;;;30.20;;
33794;SDS011;51430;52.242;21.118;2022-11-20T11:53:09;34.10;;;30.50;;
33794;SDS011;51430;52.242;21.118;2022-11-20T11:55:52;34.30;;;30.70;;
33794;SDS011;51430;52.242;21.118;2022-11-20T11:58:34;34.30;;;30.60;;
33794;SDS011;51430;52.242;21.118;2022-11-20T12:10:22;37.70;;;33.50;;
33794;SDS011;51430;52.242;21.118;2022-11-20T12:15:52;36.50;;;32.60;;
33794;SDS011;51430;52.242;21.118;2022-11-20T12:18:21;36.80;;;33.00;;
33794;SDS011;51430;52.242;21.118;2022-11-20T12:26:08;35.40;;;31.60;;
33794;SDS011;51430;52.242;21.118;2022-11-20T12:29:09;37.50;;;33.40;;
33794;SDS011;51430;52.242;21.118;2022-11-20T12:32:06;37.40;;;33.60;;
33794;SDS011;51430;52.242;21.118;2022-11-20T12:35:10;34.70;;;30.90;;
33794;SDS011;51430;52.242;21.118;2022-11-20T12:40:59;34.60;;;30.80;;
33794;SDS011;51430;52.242;21.118;2022-11-20T12:43:53;33.50;;;29.90;;
33794;SDS011;51430;52.242;21.118;2022-11-20T12:59:07;40.10;;;35.80;;
33794;SDS011;51430;52.242;21.118;2022-11-20T13:02:19;35.40;;;31.60;;
33794;SDS011;51430;52.242;21.118;2022-11-20T13:07:57;88.90;;;69.20;;
33794;SDS011;51430;52.242;21.118;2022-11-20T13:13:29;95.50;;;70.90;;
33794;SDS011;51430;52.242;21.118;2022-11-20T13:16:44;66.70;;;52.90;;
33794;SDS011;51430;52.242;21.118;2022-11-20T13:19:02;40.20;;;34.30;;
33794;SDS011;51430;52.242;21.118;2022-11-20T13:21:39;53.50;;;44.40;;
33794;SDS011;51430;52.242;21.118;2022-11-20T13:24:21;50.00;;;41.80;;
33794;SDS011;51430;52.242;21.118;2022-11-20T13:26:59;50.90;;;43.30;;
33794;SDS011;51430;52.242;21.118;2022-11-20T13:29:43;42.50;;;37.90;;
33794;SDS011;51430;52.242;21.118;2022-11-20T13:32:17;44.20;;;38.20;;
33794;SDS011;51430;52.242;21.118;2022-11-20T13:35:08;38.60;;;33.40;;
33794;SDS011;51430;52.242;21.118;2022-11-20T13:37:37;40.00;;;33.00;;
33794;SDS011;51430;52.242;21.118;2022-11-20T13:45:27;36.90;;;32.00;;
33794;SDS011;51430;52.242;21.118;2022-11-20T13:47:59;36.60;;;32.70;;
33794;SDS011;51430;52.242;21.118;2022-11-20T13:53:21;38.50;;;33.00;;
33794;SDS011;51430;52.242;21.118;2022-11-20T13:59:06;39.20;;;33.30;;
33794;SDS011;51430;52.242;21.118;2022-11-20T14:01:43;38.50;;;33.10;;
33794;SDS011;51430;52.242;21.118;2022-11-20T14:04:15;46.20;;;39.00;;
33794;SDS011;51430;52.242;21.118;2022-11-20T14:06:47;42.70;;;36.70;;
33794;SDS011;51430;52.242;21.118;2022-11-20T14:11:56;44.30;;;37.20;;
33794;SDS011;51430;52.242;21.118;2022-11-20T14:14:25;44.40;;;37.80;;
33794;SDS011;51430;52.242;21.118;2022-11-20T14:17:08;51.00;;;40.00;;
33794;SDS011;51430;52.242;21.118;2022-11-20T14:19:48;55.60;;;43.00;;
33794;SDS011;51430;52.242;21.118;2022-11-20T14:22:22;47.40;;;39.10;;
33794;SDS011;51430;52.242;21.118;2022-11-20T14:27:33;46.50;;;38.50;;
33794;SDS011;51430;52.242;21.118;2022-11-20T14:30:05;48.20;;;40.50;;
33794;SDS011;51430;52.242;21.118;2022-11-20T14:33:17;47.10;;;38.40;;
33794;SDS011;51430;52.242;21.118;2022-11-20T14:35:48;47.20;;;40.30;;
33794;SDS011;51430;52.242;21.118;2022-11-20T14:38:26;46.50;;;39.20;;
33794;SDS011;51430;52.242;21.118;2022-11-20T14:41:20;47.00;;;39.00;;
33794;SDS011;51430;52.242;21.118;2022-11-20T14:43:59;46.50;;;38.70;;
33794;SDS011;51430;52.242;21.118;2022-11-20T14:46:30;49.70;;;39.30;;
33794;SDS011;51430;52.242;21.118;2022-11-20T14:49:01;46.80;;;37.80;;
33794;SDS011;51430;52.242;21.118;2022-11-20T14:51:35;51.00;;;41.70;;
33794;SDS011;51430;52.242;21.118;2022-11-20T14:54:14;94.40;;;59.30;;
33794;SDS011;51430;52.242;21.118;2022-11-20T14:56:58;112.20;;;67.80;;
33794;SDS011;51430;52.242;21.118;2022-11-20T14:59:29;50.60;;;41.30;;
33794;SDS011;51430;52.242;21.118;2022-11-20T15:02:04;103.30;;;72.10;;
33794;SDS011;51430;52.242;21.118;2022-11-20T15:04:50;122.20;;;86.60;;
33794;SDS011;51430;52.242;21.118;2022-11-20T15:07:25;50.60;;;41.50;;
33794;SDS011;51430;52.242;21.118;2022-11-20T15:10:43;53.10;;;43.90;;
33794;SDS011;51430;52.242;21.118;2022-11-20T15:12:53;49.20;;;40.20;;
33794;SDS011;51430;52.242;21.118;2022-11-20T15:15:44;50.30;;;42.30;;
33794;SDS011;51430;52.242;21.118;2022-11-20T15:18:17;50.20;;;41.50;;
33794;SDS011;51430;52.242;21.118;2022-11-20T15:20:47;50.70;;;40.90;;
33794;SDS011;51430;52.242;21.118;2022-11-20T15:23:17;48.60;;;40.70;;
33794;SDS011;51430;52.242;21.118;2022-11-20T15:25:47;54.20;;;43.50;;
33794;SDS011;51430;52.242;21.118;2022-11-20T15:28:17;54.30;;;44.40;;
33794;SDS011;51430;52.242;21.118;2022-11-20T15:30:48;51.40;;;42.10;;
33794;SDS011;51430;52.242;21.118;2022-11-20T15:33:17;51.00;;;42.10;;
33794;SDS011;51430;52.242;21.118;2022-11-20T15:35:46;52.20;;;42.70;;
33794;SDS011;51430;52.242;21.118;2022-11-20T15:38:15;54.40;;;43.00;;
33794;SDS011;51430;52.242;21.118;2022-11-20T15:40:43;52.50;;;42.60;;
33794;SDS011;51430;52.242;21.118;2022-11-20T15:43:11;52.00;;;42.50;;
33794;SDS011;51430;52.242;21.118;2022-11-20T15:45:41;53.50;;;42.70;;
33794;SDS011;51430;52.242;21.118;2022-11-20T15:48:20;52.30;;;42.30;;
33794;SDS011;51430;52.242;21.118;2022-11-20T15:50:56;55.20;;;43.00;;
33794;SDS011;51430;52.242;21.118;2022-11-20T15:53:26;51.20;;;42.20;;
33794;SDS011;51430;52.242;21.118;2022-11-20T15:55:54;52.30;;;42.00;;
33794;SDS011;51430;52.242;21.118;2022-11-20T15:58:22;51.60;;;41.80;;
33794;SDS011;51430;52.242;21.118;2022-11-20T16:00:52;52.10;;;41.90;;
33794;SDS011;51430;52.242;21.118;2022-11-20T16:03:21;50.00;;;40.80;;
33794;SDS011;51430;52.242;21.118;2022-11-20T16:05:50;51.20;;;40.30;;
33794;SDS011;51430;52.242;21.118;2022-11-20T16:08:18;48.90;;;40.30;;
33794;SDS011;51430;52.242;21.118;2022-11-20T16:10:47;49.30;;;40.90;;
33794;SDS011;51430;52.242;21.118;2022-11-20T16:13:16;47.70;;;39.50;;